Extreme weather reports worldwide

Lowest temperatures

Station
 
Location
 
Name
 
Wind
Knots
Gust
Knots
Vis
SM
Temp/Dew
C
Baro
inHg
METAR
 
SVE KSVE Susanville, US Susanville Municipal Airport 10 22 10 -39/-69 30.02 KSVE 262055Z AUTO 21010G22KT 10SM CLR M39/M69 A3002 RMK AO2
NZCM 5 0.62 -21/-29 28.70 NZCM 262112Z AUTO VRB05KT 1000 HZ FEW001 SCT095 M21/M29 A2870 RMK AO2 SNB2102E2112 SLP725 $
UKK UASK Ust Kamenogorsk, KZ Ust-Kamennogorsk Airport 2 6.21 -8/-11 30.12 UASK 262100Z 09001MPS 9999 NSC M08/M11 Q1020 NOSIG RMK QFE739/0986
CWEU 0 15 -8/-9 30.28 CWEU 262100Z 00000KT 15SM FEW008 FEW020 FEW060 FEW130 BKN250 M08/M09 A3028 RMK SC1SC1SC1AC1CI6 SC TR SC TR SC TR AC TR SLP266
PIZ PPIZ Point Lay, US Point Lay LRRS Airport 7 0.75 -7/-8 29.78 PPIZ 262108Z AUTO 07007KT 3/4SM BR OVC002 M07/M08 A2978 RMK AO2 FZRANO PNO $

Station
 
Location
 
Name
 
Wind
Knots
Gust
Knots
Vis
SM
Temp/Dew
C
Baro
inHg
METAR
 
SFJ BGSF Kangerlussuaq, GL Kangerlussuaq Airport 7 -7/-13 30.15 BGSF 262050Z AUTO 07007KT 9999NDV NCD M07/M13 Q1021
BRW PABR Utqiaġvik, US Wiley Post Will Rogers Memorial Airport 6 1.5 -6/-8 29.83 PABR 262108Z 12006KT 1 1/2SM R08/4000VP6000FT BR BKN002 OVC030 M07/M08 A2983 RMK AO2 VIS 1/2 NE T10671083
ATK PATQ Atqasuk, US Atqasuk Edward Burnell Sr Memorial Airport 8 10 -6/-7 29.80 PATQ 262056Z AUTO 10008KT 10SM CLR M06/M07 A2980 RMK AO2 SLP097 T10611072 58001 FZRANO TSNO
THU BGTL Thule, GL Thule Air Base 0 6.21 -6/-6 30.25 BGTL 262056Z AUTO 00000KT 9999 CLR M06/M07 A3025 RMK AO2 SLP232 T10641068 52006 TSNO $
PAAD Deadhorse, US Point Thomson Airstrip 5 10 -6/-10 29.86 PAAD 262055Z AUTO 25005KT 10SM CLR M07/M11 A2986 RMK AO2 T10661107
JAV BGJN Ilulissat, GL Ilulissat Airport 5 -6/-14 30.15 BGJN 262050Z AUTO VRB05KT 9999NDV NCD M06/M14 Q1021
NUI PAQT Nuiqsut, US Nuiqsut Airport 6 10 -6/-7 29.87 PAQT 262049Z 10006KT 10SM SKC M06/M07 A2987 RMK (SCC FSS)
BTK UIBB Bratsk, RU Bratsk Airport 6 6.21 -5/-6 29.88 UIBB 262100Z AUTO 28003MPS 9999 // NCD M05/M06 Q1012 RMK QFE716/0955
LIMH IT Pian Rosà 12 6.21 -5/-5 30.38 LIMH 262055Z 05012KT CAVOK M05/M05 Q1029 RMK MON LIB VAL NIL VIS MIN 9999
DQH PALP Nuiqsut, US Alpine Airstrip 5 5 -5/-6 29.86 PALP 262045Z 12005KT 5SM BR SCT003 M05/M06 A2986
UUK PAKU Kuparuk, US Ugnu-Kuparuk Airport 3 10 -5/-7 29.87 PAKU 262045Z 16003KT 10SM R06/P6000FT FEW021 M05/M07 A2987
ULN ZMUB Ulan Bator, MN Buyant-Ukhaa International Airport 0 6.21 -4/-6 29.82 ZMUB 262100Z 00000MPS CAVOK M04/M06 Q1010 NOSIG RMK QFE651.1 86
PWQ UASP Pavlodar, KZ Pavlodar Airport 6 6.21 -4/-5 30.21 UASP 262100Z 08003MPS CAVOK M04/M05 Q1023 NOSIG RMK QFE757/1009
PYJ UERP Yakutia, RU Polyarny Airport 6 6.21 -3/-6 30.27 UERP 262100Z 02003MPS 9999 BKM016 M03/M06 Q1025 RMK QFE725
YIO CYIO Pond Inlet, CA Pond Inlet Airport 4 9 -3/-8 30.18 CYIO 262100Z AUTO 15004KT 9SM CLR M03/M08 A3018 RMK SLP228
AKP PAKP Anaktuvuk Pass, US Anaktuvuk Pass Airport 12 10 -3/-8 29.74 PAKP 262056Z AUTO 22012KT 10SM FEW044 M04/M09 A2974 RMK AO2 SLP128 T10391089 58001 FZRANO
HMA USHH Khanty-Mansiysk, RU Khanty Mansiysk Airport 0 6.21 -2/-2 30.50 USHH 262100Z 00000MPS CAVOK M02/M02 Q1033 R06/010060 NOSIG
KJA UNKL Krasnoyarsk, RU Yemelyanovo Airport 4 4.97 -2/-2 30.00 UNKL 262100Z 28002MPS 8000 NSC M02/M02 Q1016 R11/120060 NOSIG RMK QFE736
UUD UIUU Ulan Ude, RU Ulan-Ude Airport (Mukhino) 4 6.21 -2/-3 29.82 UIUU 262100Z 36002MPS 9999 NSC M02/M03 Q1010 R26/60D NOSIG RMK QFE714/0952
YXQ CYXQ Beaver Creek, CA Beaver Creek Airport 5 5 -2/-3 29.75 CYXQ 262100Z 30005KT 5SM -SN SCT011 OVC024 M02/M03 A2975 RMK SF3SC5 SLP113
YRB CYRB Resolute Bay, CA Resolute Bay Airport 23 10 -2/-3 30.04 CYRB 262100Z 10023KT 10SM FEW028 OVC091 M02/M03 A3004 RMK SC1AC7 SLP182
SCC PASC Deadhorse, US Deadhorse Airport 0 10 -2/-6 29.85 PASC 262053Z 00000KT 10SM CLR M03/M07 A2985 RMK AO2 SLP108 T10281067 58004 $
BIG PABI Delta Junction Ft Greely, US Allen Army Airfield 4 10 -2/-6 29.89 PABI 262053Z 28004KT 10SM SCT025 BKN035 OVC070 M02/M06 A2989 RMK AO2 SLP150 VIRGA SW 60000 T10221061 50000 $
UBN ZMCK Ulaanbaatar, MN Ulaanbaatar International Airport 14 6.21 -1/-5 29.82 ZMCK 262100Z 08007MPS CAVOK M01/M05 Q1010 NOSIG RMK QFE642.9 72
SGC USRR Surgut, RU Surgut Airport 0 6.21 -1/-2 30.50 USRR 262100Z 00000MPS CAVOK M01/M02 Q1033 R07/CLRD60 NOSIG RMK QFE770
NJC USNN Nizhnevartovsk, RU Nizhnevartovsk Airport 4 6.21 -1/-2 30.47 USNN 262100Z 02002MPS CAVOK M01/M02 Q1032 R03/0///65 NOSIG RMK QFE770
IKT UIII Irkutsk, RU Irkutsk Airport 4 6.21 -1/-1 29.85 UIII 262100Z 07002MPS 030V100 9999 FEW050CB M01/M01 Q1011 R12/60D NOSIG RMK QFE716/0955
GDX UHMM Magadan, RU Sokol Airport 2 6.21 -1/-2 30.00 UHMM 262100Z 07001MPS 9999 FEW040 M01/M02 Q1016 R10/19//60 RMK QFE747 R28/00000MPS
CXRB 21 -1/-2 CXRB 262100Z AUTO 11021KT M02/M03 RMK AO1 SOG 01 8007 PK WND 10026/2024 SLP177 T10171028
ARC PARC Arctic Village, US Arctic Village Airport 0 10 -1/-10 29.74 PARC 262056Z AUTO 00000KT 10SM CLR M02/M10 A2974 RMK AO2 SLP125 T10171100 58004 FZRANO
PHO PAPO Point Hope, US Point Hope Airport 4 10 -1/-4 29.77 PAPO 262056Z AUTO 08004KT 10SM OVC060 M01/M04 A2977 RMK AO2 SLP078 6//// T10111044 56004 FZRANO PNO $
SVW PASV Sparrevohn, US Sparrevohn LRRS Airport 5 10 -1/-5 29.83 PASV 262055Z AUTO VRB05KT 10SM CLR M01/M05 A2983 RMK AO2 SLP126 T10131052 52007 $
LUR PALU Cape Lisburne, US Cape Lisburne LRRS Airport 10 10 -1/-4 29.76 PALU 262055Z AUTO 13010KT 10SM BKN019 M01/M04 A2976 RMK AO2 SLP078 T10121044 57005
BTT PABT Bettles, US Bettles Airport 0 10 -1/-8 29.88 PABT 262053Z 00000KT 10SM FEW030 SCT100 SCT240 M01/M08 A2988 RMK AO2 SLP135 T10111083 58002
BTI PABA Barter Island Lrrs, US Barter Island LRRS Airport 7 10 -1/-2 29.86 PABA 262052Z AUTO 24007KT 10SM OVC017 M01/M02 A2986 RMK AO2 SLP119 60000 T10111022 58004 FZRANO
TNC PATC Tin City, US Tin City Long Range Radar Station Airport 12 10 0/-4 29.80 PATC 262106Z AUTO 28012KT 10SM SCT022 BKN055 00/M04 A2980 RMK AO2 SLP095
YCK CYVL Colville Lake, CA Tommy Kochon Airport 7 7 0/0 29.77 CYVL 262106Z AUTO 28007KT 7SM -SN SCT013 OVC050 00/00 A2977 RMK SLP101
KVL PAVL Kivalina, US Kivalina Airport 5 10 0/-1 29.74 PAVL 262104Z AUTO 33005KT 10SM FEW009 SCT022 OVC035 M01/M01 A2974 RMK AO2 T10061011 TSNO
NIB PAFS Nikolai, US Nikolai Airport 0 10 0/-4 29.93 PAFS 262101Z AUTO 00000KT 10SM CLR 01/M04 A2993 RMK AO2 SLP144 T00061044 50004 FZRANO
TJM USTR Tyumen, RU Roshchino International Airport 12 6.21 0/-2 30.27 USTR 262100Z 09006MPS CAVOK 00/M02 Q1025 R12/CLRD65 R21/CLRD65 NOSIG
OMS UNOO Omsk, RU Omsk Central Airport 6 6.21 0/-2 30.27 UNOO 262100Z 07003MPS CAVOK M00/M02 Q1025 R07/CLRD60 NOSIG RMK QFE760
KEJ UNEE Kemerovo, RU Kemerovo Airport 4 6.21 0/0 30.06 UNEE 262100Z 33002MPS 9999 OVC007 00/M00 Q1018 R23/290150 NOSIG RMK QFE741
DYR UHMA Anadyr, RU Ugolny Airport 0 6.21 0/-1 29.85 UHMA 262100Z 00000MPS 9999 FEW007 M00/M01 Q1011 R01/60D NOSIG RMK TDZ R01/00000MPS END R01/10001MPS MT OBSC QFE755/1006
TNM SCRM Isla Rey Jorge, AQ Teniente Rodolfo Marsh Martin Base 31 0.5 0/0 29.11 SCRM 262100Z 30031KT 0800 FG OVC003 M00/M00 Q0986 NOSIG
CZRP 15 0/-1 CZRP 262100Z AUTO 11015KT M01/M02 RMK AO1 SOG 08 5000 PK WND 11018/2052 SLP138 T10071015